Time;durP1;ratioP1;P1;durP2;ratioP2;P2;SDS_P1;SDS_P2;PMS_P1;PMS_P2;Temp;Humidity;BMP_temperature;BMP_pressure;BME280_temperature;BME280_humidity;BME280_pressure;Samples;Min_cycle;Max_cycle;Signal;HPM_P1;HPM_P2
2023/07/09 00:01:07;;;;;;;13.10;8.40;;;29.30;99.90;;;;;;1896385;74;21095;-68
2023/07/09 00:03:43;;;;;;;15.08;8.93;;;29.30;99.90;;;;;;1947599;72;21048;-69
2023/07/09 00:06:19;;;;;;;;;;;29.30;99.90;;;;;;1889699;75;21194;-69
2023/07/09 00:08:55;;;;;;;14.30;7.30;;;29.30;99.90;;;;;;1869035;75;20519;-67
2023/07/09 00:11:42;;;;;;;10.23;7.23;;;29.30;99.90;;;;;;1954107;72;21297;-69
2023/07/09 00:14:17;;;;;;;10.82;7.30;;;29.30;99.90;;;;;;1894722;74;21592;-68
2023/07/09 00:16:52;;;;;;;9.53;6.87;;;29.30;99.90;;;;;;1901074;74;21146;-66
2023/07/09 00:19:25;;;;;;;11.50;7.87;;;29.30;99.90;;;;;;1956248;72;21194;-67
2023/07/09 00:22:01;;;;;;;12.10;7.70;;;29.30;99.90;;;;;;1909006;74;21079;-66
2023/07/09 00:24:44;;;;;;;11.30;8.00;;;29.30;99.90;;;;;;1948481;72;21169;-66
2023/07/09 00:27:30;;;;;;;11.25;7.33;;;29.40;99.90;;;;;;1898274;74;21228;-68
2023/07/09 00:30:08;;;;;;;15.00;7.92;;;29.40;99.90;;;;;;1970072;72;21041;-68
2023/07/09 00:32:43;;;;;;;10.80;7.28;;;29.40;99.90;;;;;;1951861;72;21561;-69
2023/07/09 00:35:25;;;;;;;13.62;8.18;;;29.40;99.90;;;;;;1962848;72;21097;-69
2023/07/09 00:38:07;;;;;;;14.68;7.80;;;29.40;99.90;;;;;;1943100;73;21100;-67
2023/07/09 00:41:00;;;;;;;15.25;8.53;;;29.50;99.90;;;;;;1893232;75;21176;-67
2023/07/09 00:43:43;;;;;;;15.15;8.65;;;29.50;99.90;;;;;;1875299;75;21181;-68
2023/07/09 00:46:23;;;;;;;;;;;29.50;99.90;;;;;;1911583;74;21178;-67
2023/07/09 00:49:05;;;;;;;15.43;8.38;;;29.50;99.90;;;;;;1904217;74;20135;-67
2023/07/09 00:51:41;;;;;;;19.35;8.25;;;29.60;99.90;;;;;;1883505;75;21133;-68
2023/07/09 00:54:22;;;;;;;14.13;7.55;;;29.60;99.90;;;;;;1912248;74;21560;-68
2023/07/09 00:56:57;;;;;;;14.10;8.53;;;29.60;99.90;;;;;;1951908;72;21103;-68
2023/07/09 00:59:33;;;;;;;11.10;7.92;;;29.60;99.90;;;;;;1886687;75;21076;-68
2023/07/09 01:02:08;;;;;;;12.82;8.48;;;29.60;99.90;;;;;;1896192;74;21138;-66
2023/07/09 01:04:42;;;;;;;11.90;7.65;;;29.70;99.90;;;;;;1950008;72;21110;-69
2023/07/09 01:07:15;;;;;;;12.45;7.65;;;29.70;99.90;;;;;;1896385;74;21080;-69
2023/07/09 01:09:49;;;;;;;14.73;7.20;;;29.70;99.90;;;;;;1864333;75;21087;-68
2023/07/09 01:12:31;;;;;;;10.72;7.90;;;29.80;99.90;;;;;;1896820;74;21064;-67
2023/07/09 01:15:07;;;;;;;15.38;8.18;;;29.80;99.90;;;;;;1956385;72;21187;-69
2023/07/09 01:17:40;;;;;;;11.90;7.92;;;29.90;99.90;;;;;;1896915;74;21142;-69
2023/07/09 01:20:22;;;;;;;10.15;7.55;;;29.90;99.90;;;;;;1941049;72;21164;-68
2023/07/09 01:22:56;;;;;;;14.58;8.43;;;29.90;99.90;;;;;;1901646;74;21119;-66
2023/07/09 01:25:30;;;;;;;16.37;9.05;;;29.90;99.90;;;;;;1945897;72;21142;-68
2023/07/09 01:28:13;;;;;;;21.30;8.60;;;30.00;99.90;;;;;;1895130;74;21111;-68
2023/07/09 01:30:46;;;;;;;24.90;8.40;;;30.00;99.90;;;;;;1902416;74;21219;-68
2023/07/09 01:33:18;;;;;;;21.17;8.88;;;30.00;99.90;;;;;;1889794;75;21157;-68
2023/07/09 01:35:52;;;;;;;14.47;8.00;;;30.10;99.90;;;;;;1865501;75;21595;-68
2023/07/09 01:38:25;;;;;;;13.62;8.13;;;30.10;99.90;;;;;;1900855;74;21195;-67
2023/07/09 01:41:01;;;;;;;20.60;8.83;;;30.20;99.90;;;;;;1905183;74;21209;-67
2023/07/09 01:43:34;;;;;;;16.73;9.15;;;30.30;99.90;;;;;;1903271;74;21161;-67
2023/07/09 01:46:07;;;;;;;14.15;9.03;;;30.40;99.90;;;;;;1902106;74;21176;-69
2023/07/09 01:48:40;;;;;;;21.42;10.03;;;30.40;99.90;;;;;;1906203;74;21152;-68
2023/07/09 01:51:16;;;;;;;16.15;9.55;;;30.40;99.90;;;;;;1906017;74;21521;-68
2023/07/09 01:54:05;;;;;;;16.20;9.13;;;30.40;99.90;;;;;;1875364;74;21083;-68
2023/07/09 01:56:42;;;;;;;14.25;9.23;;;30.50;99.90;;;;;;1901849;74;21578;-67
2023/07/09 01:59:15;;;;;;;13.80;8.83;;;30.50;99.90;;;;;;1905329;74;21173;-66
2023/07/09 02:01:46;;;;;;;14.33;9.38;;;30.60;99.90;;;;;;1900933;74;21197;-68
2023/07/09 02:04:19;;;;;;;19.80;9.30;;;30.60;99.90;;;;;;1911039;74;21111;-66
2023/07/09 02:06:52;;;;;;;12.75;9.05;;;30.70;99.90;;;;;;1914241;74;21134;-67
2023/07/09 02:09:25;;;;;;;13.35;10.05;;;30.70;99.90;;;;;;1905451;74;21098;-68
2023/07/09 02:11:58;;;;;;;19.35;9.15;;;30.80;99.90;;;;;;1900753;74;21087;-67
2023/07/09 02:14:30;;;;;;;20.85;10.40;;;30.80;99.90;;;;;;1905643;74;21122;-69
2023/07/09 02:17:02;;;;;;;17.80;10.20;;;30.90;99.90;;;;;;1913223;74;21158;-68
2023/07/09 02:19:35;;;;;;;15.18;10.10;;;30.90;99.90;;;;;;1893736;74;21153;-68
2023/07/09 02:22:11;;;;;;;11.97;9.28;;;31.00;99.90;;;;;;1899048;74;21168;-66
2023/07/09 02:24:42;;;;;;;14.65;8.00;;;31.10;99.90;;;;;;1872422;75;21116;-68
2023/07/09 02:27:17;;;;;;;15.90;11.85;;;31.10;99.90;;;;;;1865099;75;21089;-68
2023/07/09 02:29:50;;;;;;;14.20;8.63;;;31.10;99.90;;;;;;1881944;74;21079;-67
2023/07/09 02:32:28;;;;;;;14.07;8.83;;;31.20;99.90;;;;;;1912318;74;21204;-68
2023/07/09 02:35:01;;;;;;;12.43;9.60;;;31.10;99.90;;;;;;1898283;74;21143;-67
2023/07/09 02:37:34;;;;;;;16.23;10.28;;;31.10;99.80;;;;;;1961503;72;21232;-68
2023/07/09 02:40:08;;;;;;;17.52;10.50;;;31.20;99.70;;;;;;1899377;74;21138;-68
2023/07/09 02:42:42;;;;;;;16.23;9.50;;;31.10;99.80;;;;;;1942252;72;21599;-67
2023/07/09 02:45:31;;;;;;;27.02;11.12;;;31.20;99.90;;;;;;1948503;72;21151;-70
2023/07/09 02:48:03;;;;;;;18.87;10.40;;;31.20;99.90;;;;;;1946066;72;21063;-69
2023/07/09 02:50:36;;;;;;;17.92;9.45;;;31.20;99.90;;;;;;1947993;72;21111;-69
2023/07/09 02:53:09;;;;;;;16.40;9.55;;;31.20;99.90;;;;;;1937621;72;21121;-68
2023/07/09 02:55:50;;;;;;;16.67;9.43;;;31.20;99.60;;;;;;1953601;72;21573;-66
2023/07/09 02:58:26;;;;;;;16.97;9.65;;;31.10;99.60;;;;;;1895719;74;21114;-67
2023/07/09 03:01:03;;;;;;;16.62;9.95;;;31.10;99.90;;;;;;1946402;72;21079;-67
2023/07/09 03:03:36;;;;;;;16.02;10.00;;;31.20;99.80;;;;;;1898282;74;21086;-67
2023/07/09 03:06:10;;;;;;;28.00;11.50;;;31.10;99.90;;;;;;1896908;74;21165;-67
2023/07/09 03:08:43;;;;;;;19.95;10.38;;;31.10;99.90;;;;;;1944935;72;21123;-68
2023/07/09 03:11:17;;;;;;;14.70;10.45;;;31.10;99.90;;;;;;1961463;72;21080;-67
2023/07/09 03:13:51;;;;;;;12.28;9.50;;;31.20;99.90;;;;;;1967220;72;21178;-68
2023/07/09 03:16:24;;;;;;;14.98;10.30;;;31.20;99.70;;;;;;1902677;74;21100;-68
2023/07/09 03:18:56;;;;;;;17.45;9.48;;;31.20;99.60;;;;;;1961249;72;21165;-68
2023/07/09 03:21:32;;;;;;;27.65;12.30;;;31.20;99.70;;;;;;1913276;74;21051;-69
2023/07/09 03:24:05;;;;;;;19.42;10.58;;;31.30;99.90;;;;;;1909293;74;21201;-69
2023/07/09 03:26:42;;;;;;;23.05;11.15;;;31.40;99.80;;;;;;1906280;74;21043;-68
2023/07/09 03:29:16;;;;;;;18.50;10.68;;;31.50;99.70;;;;;;1956447;72;21063;-66
2023/07/09 03:31:50;;;;;;;17.55;10.10;;;31.60;99.40;;;;;;1948461;72;21603;-68
2023/07/09 03:34:24;;;;;;;14.20;9.50;;;31.60;99.20;;;;;;1945816;72;21062;-67
2023/07/09 03:36:57;;;;;;;16.17;9.58;;;31.60;99.10;;;;;;1942690;72;21199;-70
2023/07/09 03:39:30;;;;;;;14.70;8.93;;;31.60;99.40;;;;;;1949565;72;21069;-68
2023/07/09 03:42:03;;;;;;;15.13;9.33;;;31.70;99.70;;;;;;1944399;72;21083;-68
2023/07/09 03:44:34;;;;;;;12.50;9.08;;;31.70;99.20;;;;;;1946004;72;21099;-68
2023/07/09 03:47:10;;;;;;;12.45;8.75;;;31.70;99.10;;;;;;1944683;72;21209;-66
2023/07/09 03:49:43;;;;;;;16.65;9.48;;;31.70;99.10;;;;;;1922659;72;21107;-69
2023/07/09 03:52:18;;;;;;;;;;;31.60;99.20;;;;;;1954510;72;21096;-66
2023/07/09 03:54:51;;;;;;;15.18;9.80;;;31.60;99.50;;;;;;1913491;74;20142;-67
2023/07/09 03:57:24;;;;;;;13.45;8.15;;;31.70;99.20;;;;;;1952971;72;21150;-69
2023/07/09 03:59:56;;;;;;;11.50;8.13;;;31.70;99.10;;;;;;1899762;74;21174;-68
2023/07/09 04:02:33;;;;;;;11.73;7.37;;;31.80;99.00;;;;;;1959363;72;21071;-67
2023/07/09 04:05:13;;;;;;;12.95;7.92;;;31.90;98.50;;;;;;1908777;74;21141;-69
2023/07/09 04:07:42;;;;;;;9.90;6.75;;;31.90;98.60;;;;;;1964820;72;21187;-66
2023/07/09 04:10:17;;;;;;;;;;;32.00;97.90;;;;;;1880745;75;21496;-67
2023/07/09 04:12:52;;;;;;;10.05;7.60;;;32.00;99.20;;;;;;1879673;75;20288;-68
2023/07/09 04:15:24;;;;;;;11.68;7.60;;;32.10;98.40;;;;;;1953740;72;21083;-69
2023/07/09 04:18:00;;;;;;;12.75;8.25;;;32.20;98.00;;;;;;1952074;72;21063;-68
2023/07/09 04:20:34;;;;;;;19.15;9.35;;;32.30;97.90;;;;;;1912923;74;21106;-66
2023/07/09 04:23:06;;;;;;;15.10;8.58;;;32.30;97.90;;;;;;1959931;72;21044;-68
2023/07/09 04:25:38;;;;;;;12.58;8.23;;;32.30;97.60;;;;;;1949846;72;21133;-67
2023/07/09 04:28:11;;;;;;;11.57;7.95;;;32.30;97.60;;;;;;1956512;72;21102;-68
2023/07/09 04:30:48;;;;;;;10.98;7.72;;;32.20;97.50;;;;;;1888427;74;21059;-66
2023/07/09 04:33:22;;;;;;;21.00;9.33;;;32.20;97.60;;;;;;1889469;74;21489;-67
2023/07/09 04:35:55;;;;;;;13.10;8.00;;;32.10;97.60;;;;;;1894812;74;21130;-68
2023/07/09 04:38:28;;;;;;;18.50;8.00;;;32.10;97.60;;;;;;1896979;74;21117;-67
2023/07/09 04:41:09;;;;;;;16.00;8.05;;;32.00;97.90;;;;;;1908930;74;21157;-67
2023/07/09 04:43:42;;;;;;;12.90;7.50;;;32.10;98.10;;;;;;1887410;74;21099;-66
2023/07/09 04:46:16;;;;;;;12.58;7.42;;;32.10;98.00;;;;;;1891082;74;21102;-68
2023/07/09 04:48:49;;;;;;;8.83;6.40;;;32.20;97.80;;;;;;1901819;74;21129;-68
2023/07/09 04:51:22;;;;;;;11.38;7.90;;;32.30;98.20;;;;;;1922341;74;21067;-67
2023/07/09 04:53:55;;;;;;;11.57;6.62;;;32.30;97.30;;;;;;1899619;74;21057;-67
2023/07/09 04:56:30;;;;;;;;;;;32.40;97.30;;;;;;1903794;74;21111;-68
2023/07/09 04:59:06;;;;;;;22.00;8.78;;;32.60;97.60;;;;;;1891604;74;20130;-66
2023/07/09 05:01:42;;;;;;;19.80;7.27;;;32.70;97.00;;;;;;1890463;74;21068;-67
2023/07/09 05:04:15;;;;;;;14.35;6.65;;;32.80;96.80;;;;;;1890758;74;21456;-67
2023/07/09 05:06:49;;;;;;;11.35;6.15;;;32.80;96.50;;;;;;1888990;74;21486;-69
2023/07/09 05:09:25;;;;;;;10.13;6.12;;;32.80;96.30;;;;;;1893633;74;21060;-67
2023/07/09 05:12:02;;;;;;;8.55;5.30;;;32.80;96.70;;;;;;1895186;74;21088;-67
2023/07/09 05:14:34;;;;;;;11.12;5.00;;;32.70;96.20;;;;;;1899016;74;21135;-68
2023/07/09 05:17:09;;;;;;;;;;;32.70;95.80;;;;;;1906363;74;21048;-67
2023/07/09 05:19:43;;;;;;;7.28;4.80;;;32.60;97.30;;;;;;1890927;74;20127;-66
2023/07/09 05:22:17;;;;;;;10.43;5.20;;;32.60;95.70;;;;;;1894302;74;21069;-67
2023/07/09 05:24:49;;;;;;;10.20;5.10;;;32.60;95.50;;;;;;1898333;74;21129;-68
2023/07/09 05:27:29;;;;;;;6.92;5.05;;;32.60;95.90;;;;;;1887467;76;21534;-67
2023/07/09 05:30:01;;;;;;;6.85;5.15;;;32.60;95.70;;;;;;1855905;76;21152;-66
2023/07/09 05:32:34;;;;;;;8.35;5.30;;;32.60;95.60;;;;;;1874827;75;21598;-68
2023/07/09 05:35:09;;;;;;;8.78;4.80;;;32.70;95.70;;;;;;1910991;74;21114;-68
2023/07/09 05:37:43;;;;;;;7.08;4.58;;;32.70;95.60;;;;;;1880084;75;21134;-67
2023/07/09 05:40:16;;;;;;;8.08;4.65;;;32.70;95.40;;;;;;1966444;72;21110;-66
2023/07/09 05:42:50;;;;;;;8.48;5.10;;;32.70;95.20;;;;;;1928126;74;21052;-69
2023/07/09 05:45:26;;;;;;;6.25;4.58;;;32.60;96.10;;;;;;1954433;72;21031;-68
2023/07/09 05:48:00;;;;;;;7.53;5.60;;;32.70;95.40;;;;;;1904374;74;21562;-68
2023/07/09 05:50:35;;;;;;;7.80;4.78;;;32.70;95.40;;;;;;1883976;75;21114;-67
2023/07/09 05:53:08;;;;;;;8.00;5.15;;;32.60;94.70;;;;;;1888123;75;21100;-68
2023/07/09 05:55:41;;;;;;;7.37;5.05;;;32.60;94.90;;;;;;1960207;72;21514;-69
2023/07/09 05:58:14;;;;;;;12.25;6.17;;;32.70;95.20;;;;;;1952076;72;21514;-68
2023/07/09 06:00:52;;;;;;;8.53;5.47;;;32.60;95.20;;;;;;1901821;75;21865;-71
2023/07/09 06:03:33;;;;;;;7.50;5.47;;;32.70;95.60;;;;;;1897157;74;21142;-69
2023/07/09 06:06:10;;;;;;;10.90;5.65;;;32.60;95.20;;;;;;1905139;74;21168;-69
2023/07/09 06:08:44;;;;;;;9.73;5.00;;;32.60;95.30;;;;;;1903051;74;21502;-69
2023/07/09 06:11:17;;;;;;;9.83;4.95;;;32.60;95.20;;;;;;1949395;72;21130;-68
2023/07/09 06:13:53;;;;;;;8.68;5.25;;;32.70;95.50;;;;;;1898449;74;21138;-69
2023/07/09 06:16:27;;;;;;;8.05;5.60;;;32.70;95.30;;;;;;1897042;74;21562;-67
2023/07/09 06:19:02;;;;;;;;;;;32.70;95.30;;;;;;1968132;72;21170;-68
2023/07/09 06:21:39;;;;;;;30.75;7.83;;;32.70;96.10;;;;;;1971372;72;20159;-68
2023/07/09 06:24:14;;;;;;;8.38;5.20;;;32.70;95.50;;;;;;1913395;74;21063;-69
2023/07/09 06:26:51;;;;;;;9.98;5.03;;;32.70;95.20;;;;;;1905392;74;21909;-69
2023/07/09 06:29:33;;;;;;;6.65;5.00;;;32.80;94.80;;;;;;1957055;72;21129;-67
2023/07/09 06:32:22;;;;;;;5.97;4.70;;;32.80;94.60;;;;;;1942026;72;21174;-69
2023/07/09 06:34:56;;;;;;;7.80;5.28;;;32.80;94.70;;;;;;1911753;74;21118;-67
2023/07/09 06:37:32;;;;;;;7.15;4.92;;;32.80;94.50;;;;;;1964399;72;21052;-68
2023/07/09 06:40:09;;;;;;;8.40;5.42;;;32.80;94.30;;;;;;1905138;74;21031;-68
2023/07/09 06:42:42;;;;;;;8.80;4.90;;;32.80;94.50;;;;;;1952757;72;21557;-67
2023/07/09 06:45:19;;;;;;;8.65;4.60;;;32.70;94.60;;;;;;1959248;72;21096;-66
2023/07/09 06:50:39;;;;;;;8.80;4.30;;;32.70;94.80;;;;;;1849137;77;21496;-65
2023/07/09 06:53:11;;;;;;;5.65;4.10;;;32.70;94.70;;;;;;1867238;75;21126;-67
2023/07/09 06:55:48;;;;;;;11.95;4.70;;;32.70;94.80;;;;;;1877238;75;21565;-66
2023/07/09 06:58:35;;;;;;;7.47;4.50;;;32.70;95.00;;;;;;1859636;77;21521;-67
2023/07/09 07:01:11;;;;;;;11.57;4.97;;;32.70;94.50;;;;;;1835543;77;21556;-72
2023/07/09 07:03:50;;;;;;;11.00;4.28;;;32.70;94.50;;;;;;1798954;77;21127;-68
2023/07/09 07:06:22;;;;;;;7.12;4.25;;;32.80;94.40;;;;;;1878473;75;21146;-69
2023/07/09 07:08:56;;;;;;;8.33;4.25;;;32.80;94.40;;;;;;1865976;75;21125;-68
2023/07/09 07:11:32;;;;;;;8.33;5.10;;;32.80;94.30;;;;;;1866708;75;21094;-67
2023/07/09 07:14:08;;;;;;;19.55;5.58;;;32.90;94.30;;;;;;1855448;75;21070;-68
2023/07/09 07:16:41;;;;;;;7.08;4.28;;;32.80;94.30;;;;;;1863627;75;21566;-70
2023/07/09 07:19:16;;;;;;;8.73;4.83;;;32.80;94.40;;;;;;1834200;77;21153;-68
2023/07/09 07:21:55;;;;;;;9.38;4.42;;;32.80;94.50;;;;;;1870775;75;21092;-68
2023/07/09 07:24:34;;;;;;;7.12;4.10;;;32.80;94.60;;;;;;1834770;77;21213;-71
2023/07/09 07:27:18;;;;;;;15.83;6.67;;;32.80;94.40;;;;;;1854903;76;21099;-70
2023/07/09 07:30:11;;;;;;;28.57;7.28;;;32.70;94.40;;;;;;1822191;77;21138;-70
2023/07/09 07:32:53;;;;;;;18.92;6.58;;;32.80;94.40;;;;;;1862484;75;21173;-71
2023/07/09 07:35:43;;;;;;;15.90;5.00;;;32.70;94.20;;;;;;1867457;75;21153;-69
2023/07/09 07:38:21;;;;;;;9.03;4.70;;;32.80;94.40;;;;;;1865345;74;21082;-71
2023/07/09 07:41:10;;;;;;;17.82;6.28;;;32.80;94.10;;;;;;1829636;78;21287;-70
2023/07/09 07:43:47;;;;;;;8.58;4.62;;;32.80;94.50;;;;;;1832017;77;21592;-71
2023/07/09 07:46:36;;;;;;;16.57;7.05;;;32.80;94.30;;;;;;1834130;77;21103;-71
2023/07/09 07:49:25;;;;;;;8.00;4.55;;;32.80;94.00;;;;;;1835750;76;21247;-70
2023/07/09 07:52:03;;;;;;;8.00;4.00;;;32.80;93.90;;;;;;1818023;78;21222;-70
2023/07/09 07:54:40;;;;;;;7.92;4.92;;;32.80;93.70;;;;;;1815675;77;21161;-70
2023/07/09 07:57:13;;;;;;;8.80;4.58;;;33.00;93.90;;;;;;1812778;77;21109;-71
2023/07/09 07:59:48;;;;;;;6.58;4.25;;;32.90;94.00;;;;;;1806849;78;21159;-71
2023/07/09 08:02:21;;;;;;;6.30;4.10;;;33.00;94.00;;;;;;1817726;77;21151;-69
2023/07/09 08:05:01;;;;;;;14.20;3.98;;;33.00;93.80;;;;;;1859893;76;21111;-70
2023/07/09 08:07:35;;;;;;;13.95;4.67;;;33.00;93.70;;;;;;1836691;77;21583;-70
2023/07/09 08:10:09;;;;;;;6.08;4.10;;;33.00;93.70;;;;;;1829212;78;21116;-68
2023/07/09 08:12:58;;;;;;;5.80;3.52;;;33.00;93.60;;;;;;1852608;76;21584;-70
2023/07/09 08:15:33;;;;;;;;;;;32.90;93.50;;;;;;1857519;76;21135;-69
2023/07/09 08:18:22;;;;;;;7.30;3.75;;;32.90;93.60;;;;;;1851709;77;20205;-71
2023/07/09 08:21:00;;;;;;;5.15;3.17;;;33.00;92.90;;;;;;1847494;76;21141;-70
2023/07/09 08:23:36;;;;;;;5.87;3.52;;;33.00;92.60;;;;;;1818530;77;21096;-69
2023/07/09 08:26:11;;;;;;;6.67;3.10;;;33.00;92.60;;;;;;1792721;77;21080;-68
2023/07/09 08:28:44;;;;;;;7.35;3.25;;;33.00;92.80;;;;;;1834527;78;21076;-69
2023/07/09 08:31:22;;;;;;;4.78;3.33;;;33.00;93.00;;;;;;1852250;77;21157;-69
2023/07/09 08:34:11;;;;;;;5.12;2.98;;;33.00;92.90;;;;;;1831959;78;21506;-71
2023/07/09 08:36:50;;;;;;;4.10;3.08;;;33.00;93.00;;;;;;1833319;78;21163;-72
2023/07/09 08:39:39;;;;;;;7.08;3.77;;;32.90;93.20;;;;;;1853706;77;21162;-69
2023/07/09 08:42:15;;;;;;;7.20;4.33;;;32.90;93.40;;;;;;1850457;77;21156;-69
2023/07/09 08:45:03;;;;;;;6.40;3.93;;;32.80;93.50;;;;;;1830443;78;21076;-69
2023/07/09 08:48:03;;;;;;;3.70;3.00;;;32.80;92.70;;;;;;1822445;77;21088;-69
2023/07/09 08:50:44;;;;;;;8.28;2.90;;;32.80;93.40;;;;;;1824140;77;21143;-68
2023/07/09 08:53:22;;;;;;;7.60;3.35;;;32.80;93.10;;;;;;1832349;77;21072;-68
2023/07/09 08:56:06;;;;;;;5.70;3.50;;;32.80;92.70;;;;;;1839598;77;21124;-69
2023/07/09 08:58:44;;;;;;;4.03;3.00;;;32.80;92.70;;;;;;1865094;76;21060;-68
2023/07/09 09:01:39;;;;;;;8.33;3.60;;;32.80;92.60;;;;;;1854363;76;21188;-68
2023/07/09 09:04:18;;;;;;;10.82;4.15;;;32.80;93.20;;;;;;1884191;76;21111;-69
2023/07/09 09:06:55;;;;;;;14.00;6.62;;;32.80;93.00;;;;;;1833420;77;21579;-69
2023/07/09 09:09:36;;;;;;;6.15;4.42;;;32.80;93.00;;;;;;1836113;77;21124;-71
2023/07/09 09:12:28;;;;;;;5.40;3.92;;;32.80;93.40;;;;;;1868050;76;21151;-68
2023/07/09 09:15:17;;;;;;;6.25;4.05;;;32.70;93.10;;;;;;1850241;76;21134;-70
2023/07/09 09:17:56;;;;;;;5.92;3.30;;;32.80;93.20;;;;;;1839562;77;21154;-70
2023/07/09 09:20:30;;;;;;;6.40;3.77;;;32.70;92.70;;;;;;1835284;77;21146;-69
2023/07/09 09:23:06;;;;;;;9.90;5.03;;;32.70;92.70;;;;;;1842920;77;21181;-69
2023/07/09 09:25:42;;;;;;;20.15;7.35;;;32.70;92.50;;;;;;1838664;77;21222;-70
2023/07/09 09:28:18;;;;;;;15.13;5.12;;;32.70;92.90;;;;;;1843031;76;21455;-70
2023/07/09 09:30:53;;;;;;;32.08;6.08;;;32.60;92.90;;;;;;1867717;76;21114;-71
2023/07/09 09:33:26;;;;;;;15.55;4.65;;;32.60;92.80;;;;;;1816645;79;21114;-69
2023/07/09 09:36:03;;;;;;;5.45;3.15;;;32.60;92.50;;;;;;1818290;79;21086;-69
2023/07/09 09:38:39;;;;;;;11.43;4.15;;;32.60;92.20;;;;;;1819025;79;21122;-69
2023/07/09 09:41:16;;;;;;;6.05;2.80;;;32.60;92.40;;;;;;1829176;77;21115;-69
2023/07/09 09:43:49;;;;;;;8.73;3.22;;;32.60;92.70;;;;;;1814743;79;21100;-69
2023/07/09 09:46:28;;;;;;;4.87;2.95;;;32.60;92.80;;;;;;1836344;77;21569;-70
2023/07/09 09:49:11;;;;;;;19.00;4.53;;;32.60;92.60;;;;;;1848338;77;21127;-70
2023/07/09 09:51:44;;;;;;;17.35;5.30;;;32.60;92.50;;;;;;1802068;78;21155;-69
2023/07/09 09:54:33;;;;;;;11.50;4.25;;;32.60;92.40;;;;;;1803229;78;21596;-70
2023/07/09 09:57:16;;;;;;;7.37;3.58;;;32.60;92.60;;;;;;1791841;79;21099;-69
2023/07/09 09:59:59;;;;;;;9.73;3.50;;;32.60;92.60;;;;;;1802922;78;21652;-69
2023/07/09 10:02:38;;;;;;;7.85;3.92;;;32.50;92.60;;;;;;1782632;79;21136;-69
2023/07/09 10:05:15;;;;;;;9.78;4.15;;;32.50;92.80;;;;;;1812837;78;21099;-69
2023/07/09 10:08:10;;;;;;;6.60;3.25;;;32.50;92.80;;;;;;1816197;77;21147;-69
2023/07/09 10:10:43;;;;;;;14.98;3.90;;;32.50;92.60;;;;;;1821402;78;21166;-69
2023/07/09 10:13:33;;;;;;;9.38;3.50;;;32.50;92.70;;;;;;1801585;78;21127;-68
2023/07/09 10:16:22;;;;;;;4.97;3.17;;;32.50;92.80;;;;;;1817325;78;21119;-68
2023/07/09 10:18:57;;;;;;;6.12;3.40;;;32.50;93.00;;;;;;1794872;79;21204;-68
2023/07/09 10:21:48;;;;;;;6.08;3.33;;;32.50;92.90;;;;;;1819789;77;21516;-70
2023/07/09 10:24:37;;;;;;;11.93;3.50;;;32.50;92.80;;;;;;1821628;78;21720;-73
2023/07/09 10:27:25;;;;;;;6.53;3.00;;;32.40;92.80;;;;;;1799652;79;21177;-69
2023/07/09 10:30:06;;;;;;;4.00;2.90;;;32.40;92.70;;;;;;1777731;77;21611;-67
2023/07/09 10:33:11;;;;;;;6.05;3.80;;;32.40;92.90;;;;;;1798455;79;21254;-67
2023/07/09 10:36:05;;;;;;;5.90;3.27;;;32.40;92.80;;;;;;1798993;79;21202;-68
2023/07/09 10:39:02;;;;;;;6.60;3.75;;;32.40;92.70;;;;;;1807587;78;21139;-69
2023/07/09 10:41:37;;;;;;;5.80;3.85;;;32.40;93.00;;;;;;1781166;79;21193;-68
2023/07/09 10:44:11;;;;;;;;;;;32.40;93.00;;;;;;1779741;79;21199;-67
2023/07/09 10:46:58;;;;;;;4.80;3.50;;;32.40;93.20;;;;;;1808087;78;20218;-68
2023/07/09 10:49:47;;;;;;;5.42;3.80;;;32.30;93.10;;;;;;1798248;79;21186;-67
2023/07/09 10:52:28;;;;;;;8.00;3.70;;;32.40;93.20;;;;;;1810117;78;21182;-67
2023/07/09 10:55:20;;;;;;;6.20;4.10;;;32.40;93.30;;;;;;1795538;79;21095;-68
2023/07/09 10:58:06;;;;;;;8.60;3.90;;;32.30;93.50;;;;;;1820118;77;21104;-68
2023/07/09 11:00:41;;;;;;;8.50;4.58;;;32.30;93.50;;;;;;1792398;79;21491;-67
2023/07/09 11:03:18;;;;;;;8.08;4.00;;;32.40;93.50;;;;;;1826116;77;21483;-67
2023/07/09 11:05:54;;;;;;;8.10;3.87;;;32.30;93.40;;;;;;1824745;77;21089;-67
2023/07/09 11:08:39;;;;;;;7.15;3.92;;;32.30;93.60;;;;;;1842232;77;21072;-67
2023/07/09 11:11:31;;;;;;;5.92;3.87;;;32.30;93.80;;;;;;1807989;78;21112;-67
2023/07/09 11:14:28;;;;;;;8.90;4.72;;;32.30;94.00;;;;;;1826548;77;21572;-68
2023/07/09 11:17:05;;;;;;;9.50;4.53;;;32.20;94.20;;;;;;1838459;77;21157;-68
2023/07/09 11:19:48;;;;;;;5.53;4.25;;;32.20;94.40;;;;;;1828447;77;21107;-67
2023/07/09 11:22:24;;;;;;;7.67;3.52;;;32.10;94.30;;;;;;1798290;79;21179;-67
2023/07/09 11:25:14;;;;;;;3.83;2.40;;;32.00;94.20;;;;;;1804960;78;21139;-67
2023/07/09 11:27:56;;;;;;;8.43;3.72;;;31.90;93.00;;;;;;1843384;77;21095;-69
2023/07/09 11:30:32;;;;;;;7.25;2.70;;;31.80;93.10;;;;;;1810862;78;21129;-67
2023/07/09 11:33:07;;;;;;;5.15;2.75;;;31.70;93.40;;;;;;1804273;79;21108;-68
2023/07/09 11:35:50;;;;;;;5.90;2.75;;;31.50;93.50;;;;;;1815046;77;21267;-67
2023/07/09 11:38:27;;;;;;;27.27;6.50;;;31.50;93.80;;;;;;1781916;79;21134;-69
2023/07/09 11:41:03;;;;;;;7.78;3.10;;;31.40;94.10;;;;;;1809976;78;21504;-68
2023/07/09 11:43:40;;;;;;;;;;;31.30;94.20;;;;;;1795967;79;21115;-68
2023/07/09 11:46:24;;;;;;;7.75;3.25;;;31.30;94.40;;;;;;1809089;78;20196;-68
2023/07/09 11:49:07;;;;;;;4.78;3.58;;;31.30;94.40;;;;;;1831127;77;21530;-69
2023/07/09 11:51:45;;;;;;;7.03;4.67;;;31.20;94.40;;;;;;1815381;77;21135;-67
2023/07/09 11:54:22;;;;;;;8.08;3.83;;;31.20;94.60;;;;;;1815744;77;21522;-69
2023/07/09 11:57:02;;;;;;;7.62;3.45;;;31.20;94.80;;;;;;1817009;77;21130;-70
2023/07/09 11:59:43;;;;;;;8.88;4.40;;;31.20;94.70;;;;;;1790174;79;21100;-66
2023/07/09 12:02:22;;;;;;;7.47;3.70;;;31.20;94.90;;;;;;1814782;77;21080;-68
2023/07/09 12:04:57;;;;;;;10.58;4.17;;;31.20;94.90;;;;;;1836007;77;21140;-68
2023/07/09 12:07:31;;;;;;;9.28;3.42;;;31.20;94.80;;;;;;1810216;78;21605;-69
2023/07/09 12:10:23;;;;;;;6.65;3.62;;;31.20;94.80;;;;;;1805695;79;21176;-68
2023/07/09 12:12:58;;;;;;;8.40;3.70;;;31.20;94.90;;;;;;1808363;78;21198;-68
2023/07/09 12:15:43;;;;;;;8.28;4.00;;;31.20;95.10;;;;;;1806683;78;21119;-66
2023/07/09 12:18:20;;;;;;;7.90;3.65;;;31.20;95.30;;;;;;1794071;79;21178;-69
2023/07/09 12:20:54;;;;;;;5.62;3.40;;;31.10;95.20;;;;;;1821796;77;21181;-68
2023/07/09 12:23:30;;;;;;;10.25;4.25;;;31.10;95.30;;;;;;1798706;79;21088;-67
2023/07/09 12:26:05;;;;;;;15.35;5.10;;;31.10;95.60;;;;;;1804959;79;21091;-68
2023/07/09 12:28:42;;;;;;;10.38;4.78;;;31.00;95.50;;;;;;1825053;77;21482;-67
2023/07/09 12:31:21;;;;;;;10.10;5.28;;;31.00;95.70;;;;;;1824519;78;21212;-67
2023/07/09 12:33:57;;;;;;;10.40;5.28;;;31.00;95.70;;;;;;1803817;79;21147;-68
2023/07/09 12:36:31;;;;;;;15.58;6.25;;;31.00;95.90;;;;;;1821484;77;21095;-69
2023/07/09 12:39:06;;;;;;;10.30;5.58;;;31.00;96.00;;;;;;1788645;79;21290;-68
2023/07/09 12:42:00;;;;;;;7.17;4.87;;;31.00;96.00;;;;;;1826146;77;21157;-68
2023/07/09 12:44:49;;;;;;;10.28;6.03;;;31.10;96.00;;;;;;1825467;77;21100;-67
2023/07/09 12:47:25;;;;;;;11.68;7.65;;;31.10;96.00;;;;;;1816944;78;21116;-67
2023/07/09 12:50:05;;;;;;;13.45;9.38;;;31.10;95.90;;;;;;1807286;79;21221;-69
2023/07/09 12:52:51;;;;;;;14.25;8.90;;;31.20;96.00;;;;;;1791532;78;21879;-68
2023/07/09 12:55:28;;;;;;;12.45;8.70;;;31.20;96.10;;;;;;1803480;79;21122;-68
2023/07/09 12:58:14;;;;;;;13.62;8.80;;;31.20;96.20;;;;;;1822052;77;21511;-69
2023/07/09 13:00:53;;;;;;;15.18;8.40;;;31.10;96.40;;;;;;1792478;77;21274;-80
2023/07/09 13:03:43;;;;;;;16.57;6.97;;;31.10;96.50;;;;;;1786002;80;21070;-82
2023/07/09 13:06:30;;;;;;;8.93;6.12;;;31.10;96.70;;;;;;1792609;79;21222;-83
2023/07/09 13:09:24;;;;;;;11.03;6.33;;;31.00;96.70;;;;;;1801997;79;21104;-81
2023/07/09 13:12:03;;;;;;;14.43;8.00;;;31.00;96.70;;;;;;1819044;78;21068;-84
2023/07/09 13:15:13;;;;;;;;;;;31.00;97.00;;;;;;1819527;77;21648;-81
2023/07/09 13:17:44;;;;;;;17.95;9.15;;;31.00;96.80;;;;;;1796040;79;20186;-83
2023/07/09 13:20:22;;;;;;;16.93;8.00;;;31.00;97.10;;;;;;1789319;79;21076;-82
2023/07/09 13:22:58;;;;;;;16.02;7.50;;;30.90;97.10;;;;;;1801572;79;21144;-82
2023/07/09 13:25:49;;;;;;;10.93;6.58;;;30.90;97.00;;;;;;1843845;76;21090;-84
2023/07/09 13:28:27;;;;;;;10.60;6.42;;;30.90;97.10;;;;;;1798244;79;21194;-85
2023/07/09 13:31:20;;;;;;;11.97;6.47;;;30.90;97.10;;;;;;1785036;79;21099;-82
2023/07/09 13:34:00;;;;;;;14.65;6.83;;;30.90;97.10;;;;;;1792045;79;21100;-84
2023/07/09 13:36:51;;;;;;;11.00;6.55;;;30.90;97.20;;;;;;1811654;77;21099;-81
2023/07/09 13:39:40;;;;;;;14.93;6.55;;;30.90;97.20;;;;;;1805136;77;21080;-84
2023/07/09 13:42:33;;;;;;;13.65;6.40;;;30.90;97.30;;;;;;1820794;77;21269;-77